Time;durP1;ratioP1;P1;durP2;ratioP2;P2;SDS_P1;SDS_P2;PMS_P1;PMS_P2;Temp;Humidity;BMP_temperature;BMP_pressure;BME280_temperature;BME280_humidity;BME280_pressure;Samples;Min_cycle;Max_cycle;Signal;HPM_P1;HPM_P2
2024/01/27 00:00:25;;;;;;;17.50;11.90;;;;;;;20.18;31.49;101262.66;103545;1283;61407;-79
2024/01/27 00:02:51;;;;;;;16.60;12.20;;;;;;;20.19;31.67;101265.50;103648;1287;61263;-79
2024/01/27 00:05:18;;;;;;;16.10;12.30;;;;;;;20.19;31.43;101264.25;103697;1283;61492;-81
2024/01/27 00:07:44;;;;;;;14.90;11.60;;;;;;;20.19;31.56;101266.91;103753;1283;61320;-80
2024/01/27 00:10:09;;;;;;;18.60;12.50;;;;;;;20.20;31.43;101267.75;103734;1283;62532;-80
2024/01/27 00:12:36;;;;;;;17.10;11.90;;;;;;;20.20;31.52;101263.83;103815;1283;61279;-80
2024/01/27 00:15:03;;;;;;;16.90;12.40;;;;;;;20.20;31.50;101264.55;103689;1287;62664;-79
2024/01/27 00:17:29;;;;;;;16.60;12.40;;;;;;;20.20;31.53;101279.36;103666;1283;61352;-80
2024/01/27 00:19:55;;;;;;;18.30;11.80;;;;;;;20.20;31.45;101275.24;103867;1283;61452;-80
2024/01/27 00:22:21;;;;;;;16.40;11.80;;;;;;;20.20;31.45;101272.58;103727;1283;61831;-79
2024/01/27 00:24:47;;;;;;;16.60;12.50;;;;;;;20.20;31.53;101268.96;103658;1283;62555;-80
2024/01/27 00:27:13;;;;;;;15.70;12.00;;;;;;;20.20;31.47;101268.25;103710;1282;61338;-79
2024/01/27 00:29:41;;;;;;;15.60;12.10;;;;;;;20.20;31.40;101263.78;103705;1281;61384;-80
2024/01/27 00:32:07;;;;;;;15.90;12.00;;;;;;;20.21;31.46;101258.95;103670;1283;61458;-80
2024/01/27 00:34:33;;;;;;;16.90;12.50;;;;;;;20.21;31.47;101253.59;103512;1283;62287;-80
2024/01/27 00:36:58;;;;;;;18.20;12.70;;;;;;;20.21;31.34;101251.08;103726;1285;61408;-80
2024/01/27 00:39:24;;;;;;;16.80;11.90;;;;;;;20.20;31.45;101250.91;103706;1283;61847;-80
2024/01/27 00:41:51;;;;;;;18.20;12.40;;;;;;;20.21;31.37;101251.61;103882;1285;61384;-79
2024/01/27 00:44:17;;;;;;;17.60;13.10;;;;;;;20.21;31.44;101251.07;103703;1283;61637;-79
2024/01/27 00:46:43;;;;;;;18.00;12.80;;;;;;;20.21;31.27;101238.37;103825;1288;61394;-79
2024/01/27 00:49:08;;;;;;;18.50;12.80;;;;;;;20.21;31.44;101228.70;103631;1283;61424;-80
2024/01/27 00:51:34;;;;;;;18.30;12.60;;;;;;;20.22;31.20;101213.48;103827;1283;62472;-80
2024/01/27 00:54:00;;;;;;;17.40;12.60;;;;;;;20.22;31.25;101204.36;103733;1283;61765;-80
2024/01/27 00:56:26;;;;;;;18.10;12.80;;;;;;;20.22;31.26;101210.23;103594;1282;61291;-80
2024/01/27 00:58:51;;;;;;;16.30;12.70;;;;;;;20.23;31.17;101210.01;103656;1282;72362;-80
2024/01/27 01:01:17;;;;;;;16.40;12.20;;;;;;;20.23;31.25;101214.33;103844;1281;61386;-80
2024/01/27 01:03:43;;;;;;;16.50;12.50;;;;;;;20.23;31.33;101214.31;103934;1283;62691;-79
2024/01/27 01:06:09;;;;;;;17.60;12.50;;;;;;;20.23;31.29;101214.65;103543;1283;61327;-78
2024/01/27 01:08:35;;;;;;;15.50;11.90;;;;;;;20.23;31.15;101213.79;103672;1288;61391;-79
2024/01/27 01:11:01;;;;;;;16.90;12.60;;;;;;;20.23;31.17;101213.94;103614;1283;62317;-80
2024/01/27 01:13:26;;;;;;;16.90;12.40;;;;;;;20.23;31.19;101211.83;103774;1281;75468;-81
2024/01/27 01:15:52;;;;;;;18.10;12.70;;;;;;;20.23;31.10;101209.63;103756;1282;61410;-78
2024/01/27 01:18:18;;;;;;;16.50;12.00;;;;;;;20.23;31.32;101208.55;103944;1283;62993;-79
2024/01/27 01:20:44;;;;;;;16.40;11.90;;;;;;;20.24;31.26;101207.10;103821;1288;61365;-79
2024/01/27 01:23:09;;;;;;;18.00;11.60;;;;;;;20.24;31.30;101222.42;103907;1283;61975;-80
2024/01/27 01:25:35;;;;;;;16.40;12.40;;;;;;;20.24;31.13;101220.64;104128;1281;61381;-79
2024/01/27 01:28:01;;;;;;;15.00;11.70;;;;;;;20.25;31.21;101219.55;103497;1288;62560;-79
2024/01/27 01:30:27;;;;;;;14.40;11.50;;;;;;;20.25;31.22;101211.14;103745;1283;61817;-79
2024/01/27 01:32:52;;;;;;;14.50;11.50;;;;;;;20.25;31.23;101210.24;103875;1283;61621;-79
2024/01/27 01:35:19;;;;;;;17.00;11.90;;;;;;;20.25;31.28;101205.21;103696;1283;61355;-80
2024/01/27 01:37:44;;;;;;;16.50;11.70;;;;;;;20.25;31.26;101198.23;103676;1283;61510;-80
2024/01/27 01:40:12;;;;;;;14.80;11.60;;;;;;;20.26;31.18;101187.13;103701;1283;61252;-79
2024/01/27 01:42:39;;;;;;;15.20;11.90;;;;;;;20.26;31.23;101186.41;103756;1283;61471;-78
2024/01/27 01:45:05;;;;;;;16.20;12.00;;;;;;;20.26;31.16;101193.39;103646;1283;61468;-80
2024/01/27 01:47:30;;;;;;;15.70;11.80;;;;;;;20.26;31.23;101191.23;103833;1282;61374;-80
2024/01/27 01:49:57;;;;;;;15.50;11.90;;;;;;;20.26;31.26;101186.95;103561;1282;61409;-79
2024/01/27 01:52:22;;;;;;;14.10;11.50;;;;;;;20.26;31.16;101191.06;103807;1287;61413;-80
2024/01/27 01:54:49;;;;;;;15.40;11.70;;;;;;;20.26;31.29;101183.55;103737;1288;61441;-79
2024/01/27 01:57:15;;;;;;;18.00;11.60;;;;;;;20.27;31.11;101188.34;103512;1283;74447;-79
2024/01/27 01:59:41;;;;;;;17.10;11.90;;;;;;;20.27;31.20;101190.48;103680;1283;62731;-80
2024/01/27 02:02:12;;;;;;;14.40;11.30;;;;;;;20.27;31.17;101189.20;103592;1286;61400;-78
2024/01/27 02:04:48;;;;;;;14.80;11.30;;;;;;;20.27;31.00;101185.46;103689;1281;72904;-79
2024/01/27 02:07:14;;;;;;;14.70;11.40;;;;;;;20.27;31.14;101183.68;103829;1284;74273;-80
2024/01/27 02:09:39;;;;;;;14.80;11.20;;;;;;;20.27;31.08;101174.91;103680;1283;61393;-80
2024/01/27 02:12:11;;;;;;;13.00;10.90;;;;;;;20.27;31.01;101171.33;103911;1283;61391;-80
2024/01/27 02:14:36;;;;;;;15.60;11.80;;;;;;;20.28;31.08;101168.08;103647;1288;72519;-80
2024/01/27 02:17:04;;;;;;;14.60;11.00;;;;;;;20.28;31.05;101167.54;103554;1285;61779;-80
2024/01/27 02:19:30;;;;;;;16.70;11.20;;;;;;;20.28;30.98;101169.15;104171;1283;62077;-79
2024/01/27 02:21:55;;;;;;;14.70;11.00;;;;;;;20.28;30.99;101172.91;104113;1283;61297;-80
2024/01/27 02:24:21;;;;;;;16.00;10.80;;;;;;;20.29;30.93;101176.95;103763;1283;61419;-79
2024/01/27 02:26:47;;;;;;;14.90;10.70;;;;;;;20.29;31.04;101181.08;103671;1283;61378;-80
2024/01/27 02:29:12;;;;;;;16.30;10.70;;;;;;;20.29;31.02;101175.36;103680;1283;62115;-80
2024/01/27 02:31:39;;;;;;;15.00;11.00;;;;;;;20.29;30.96;101171.60;103673;1281;62481;-80
2024/01/27 02:34:05;;;;;;;14.80;11.00;;;;;;;20.29;30.93;101166.94;103815;1283;62562;-80
2024/01/27 02:36:31;;;;;;;13.40;11.10;;;;;;;20.29;30.93;101167.65;103741;1288;61448;-80
2024/01/27 02:38:56;;;;;;;14.10;10.40;;;;;;;20.29;31.04;101158.34;103723;1283;61407;-80
2024/01/27 02:41:22;;;;;;;12.90;10.70;;;;;;;20.31;30.97;101163.09;103627;1283;62427;-79
2024/01/27 02:43:48;;;;;;;15.00;10.20;;;;;;;20.30;30.83;101167.06;103919;1283;61412;-80
2024/01/27 02:46:15;;;;;;;14.40;10.70;;;;;;;20.30;30.85;101153.98;103934;1283;62402;-80
2024/01/27 02:48:42;;;;;;;15.60;10.90;;;;;;;20.31;30.81;101160.02;103671;1285;71537;-79
2024/01/27 02:51:08;;;;;;;14.70;10.50;;;;;;;20.30;30.87;101153.13;104034;1283;61727;-80
2024/01/27 02:53:34;;;;;;;15.10;10.20;;;;;;;20.31;30.94;101148.42;103611;1283;61378;-80
2024/01/27 02:56:00;;;;;;;14.00;10.80;;;;;;;20.31;30.87;101140.73;103692;1283;61261;-78
2024/01/27 02:58:26;;;;;;;14.50;10.40;;;;;;;20.31;30.93;101134.98;103689;1287;61798;-81
2024/01/27 03:00:52;;;;;;;13.50;10.40;;;;;;;20.31;30.82;101140.35;103661;1288;61381;-80
2024/01/27 03:03:18;;;;;;;12.90;10.10;;;;;;;20.32;30.84;101131.73;103812;1283;61452;-79
2024/01/27 03:05:44;;;;;;;12.50;9.70;;;;;;;20.32;30.96;101136.38;103718;1281;61316;-80
2024/01/27 03:08:10;;;;;;;12.30;10.00;;;;;;;20.32;30.89;101144.95;103510;1286;61283;-79
2024/01/27 03:10:35;;;;;;;13.00;10.20;;;;;;;20.32;30.92;101135.84;103703;1283;61628;-79
2024/01/27 03:13:01;;;;;;;14.20;10.40;;;;;;;20.32;30.81;101125.08;103699;1283;61409;-79
2024/01/27 03:15:27;;;;;;;13.90;10.20;;;;;;;20.32;30.82;101121.34;103594;1288;61385;-80
2024/01/27 03:17:53;;;;;;;14.90;10.30;;;;;;;20.33;30.77;101123.80;103670;1283;62405;-80
2024/01/27 03:20:19;;;;;;;13.60;10.30;;;;;;;20.32;30.78;101109.56;103729;1285;61428;-79
2024/01/27 03:22:44;;;;;;;13.50;10.00;;;;;;;20.33;30.77;101109.54;103696;1288;72404;-79
2024/01/27 03:25:13;;;;;;;14.00;10.40;;;;;;;20.32;30.84;101107.22;103672;1283;61370;-80
2024/01/27 03:27:42;;;;;;;12.30;9.60;;;;;;;20.33;30.84;101109.17;103691;1283;62410;-81
2024/01/27 03:30:08;;;;;;;13.30;9.80;;;;;;;20.33;30.73;101103.44;103720;1283;62600;-80
2024/01/27 03:32:34;;;;;;;13.30;9.70;;;;;;;20.33;30.75;101108.42;103557;1283;71793;-80
2024/01/27 03:35:00;;;;;;;12.60;9.60;;;;;;;20.33;30.81;101104.48;103655;1283;61383;-80
2024/01/27 03:37:27;;;;;;;15.00;10.50;;;;;;;20.33;30.86;101108.05;103760;1283;61384;-79
2024/01/27 03:39:53;;;;;;;12.70;9.80;;;;;;;20.34;30.82;101103.92;103752;1283;61388;-80
2024/01/27 03:42:19;;;;;;;12.20;9.70;;;;;;;20.34;30.68;101111.20;103524;1288;61399;-79
2024/01/27 03:44:45;;;;;;;13.40;9.70;;;;;;;20.34;30.68;101101.20;103460;1283;61536;-79
2024/01/27 03:47:10;;;;;;;12.40;8.80;;;;;;;20.34;30.80;101092.23;103681;1281;61368;-80
2024/01/27 03:49:36;;;;;;;14.20;10.00;;;;;;;20.35;30.76;101084.55;103603;1285;62170;-79
2024/01/27 03:52:02;;;;;;;13.10;9.90;;;;;;;20.35;30.70;101080.62;103591;1282;62536;-80
2024/01/27 03:54:28;;;;;;;12.00;9.30;;;;;;;20.35;30.62;101081.13;103650;1280;62099;-80
2024/01/27 03:56:55;;;;;;;12.10;9.20;;;;;;;20.35;30.60;101073.25;103695;1283;61280;-79
2024/01/27 03:59:21;;;;;;;12.10;9.30;;;;;;;20.35;30.73;101068.62;103567;1283;62569;-79
2024/01/27 04:01:49;;;;;;;12.00;9.40;;;;;;;20.35;30.74;101068.41;103574;1283;61385;-79
2024/01/27 04:04:15;;;;;;;12.50;9.80;;;;;;;20.35;30.56;101053.92;103804;1285;61371;-80
2024/01/27 04:06:41;;;;;;;13.30;9.20;;;;;;;20.35;30.60;101047.50;103796;1283;62563;-79
2024/01/27 04:09:10;;;;;;;14.40;9.20;;;;;;;20.35;30.58;101046.96;103520;1283;61858;-79
2024/01/27 04:11:36;;;;;;;11.70;8.70;;;;;;;20.35;30.53;101046.77;103665;1283;61366;-80
2024/01/27 04:14:03;;;;;;;12.70;9.20;;;;;;;20.36;30.65;101048.16;103658;1283;62456;-79
2024/01/27 04:16:29;;;;;;;11.50;8.30;;;;;;;20.36;30.66;101054.79;103702;1282;61368;-80
2024/01/27 04:18:54;;;;;;;11.20;8.60;;;;;;;20.36;30.50;101054.05;103554;1288;61329;-79
2024/01/27 04:21:20;;;;;;;12.30;8.80;;;;;;;20.36;30.66;101047.44;103688;1282;62552;-79
2024/01/27 04:23:46;;;;;;;11.60;9.10;;;;;;;20.36;30.40;101037.77;103743;1283;62026;-80
2024/01/27 04:26:12;;;;;;;12.20;9.10;;;;;;;20.37;30.62;101033.10;103843;1283;61367;-80
2024/01/27 04:28:40;;;;;;;11.60;8.60;;;;;;;20.37;30.37;101030.79;103847;1283;62608;-79
2024/01/27 04:31:06;;;;;;;12.50;8.60;;;;;;;20.37;30.47;101030.75;103594;1283;61362;-80
2024/01/27 04:33:32;;;;;;;10.70;8.50;;;;;;;20.37;30.48;101027.70;103817;1285;61371;-79
2024/01/27 04:35:58;;;;;;;12.20;8.20;;;;;;;20.38;30.46;101022.67;103693;1283;62595;-79
2024/01/27 04:38:24;;;;;;;11.80;9.10;;;;;;;20.38;30.42;101029.80;103890;1285;61328;-80
2024/01/27 04:40:50;;;;;;;13.00;9.20;;;;;;;20.38;30.60;101035.72;103747;1288;61381;-79
2024/01/27 04:43:17;;;;;;;12.60;9.20;;;;;;;20.38;30.38;101035.70;103697;1283;61279;-79
2024/01/27 04:45:43;;;;;;;10.40;8.20;;;;;;;20.38;30.42;101040.17;103548;1286;62508;-80
2024/01/27 04:48:09;;;;;;;10.60;8.00;;;;;;;20.38;30.37;101049.10;103699;1287;61461;-78
2024/01/27 04:50:35;;;;;;;11.20;8.60;;;;;;;20.38;30.44;101051.57;103722;1283;61362;-79
2024/01/27 04:53:02;;;;;;;11.30;8.30;;;;;;;20.38;30.45;101048.39;103852;1283;62558;-80
2024/01/27 04:55:27;;;;;;;11.70;8.50;;;;;;;20.39;30.55;101054.07;103738;1283;61375;-80
2024/01/27 04:57:53;;;;;;;11.40;7.70;;;;;;;20.38;30.39;101051.77;103874;1283;61380;-80
2024/01/27 05:00:22;;;;;;;11.10;8.10;;;;;;;20.39;30.50;101051.41;103690;1283;62284;-79
2024/01/27 05:02:49;;;;;;;10.90;7.90;;;;;;;20.38;30.36;101051.21;103843;1283;61456;-80
2024/01/27 05:05:15;;;;;;;12.20;8.70;;;;;;;20.39;30.32;101054.77;103693;1283;61781;-80
2024/01/27 05:07:40;;;;;;;11.30;7.80;;;;;;;20.39;30.37;101065.11;103685;1283;61898;-80
2024/01/27 05:10:10;;;;;;;11.40;8.30;;;;;;;20.39;30.40;101066.73;103640;1283;61381;-81
2024/01/27 05:12:35;;;;;;;11.20;8.30;;;;;;;20.40;30.26;101074.40;103851;1283;61384;-80
2024/01/27 05:15:02;;;;;;;12.50;7.90;;;;;;;20.39;30.21;101077.61;104019;1283;61426;-80
2024/01/27 05:17:27;;;;;;;10.60;7.90;;;;;;;20.39;30.50;101076.55;103246;1289;62143;-80
2024/01/27 05:19:53;;;;;;;12.10;8.00;;;;;;;20.40;30.34;101073.11;103290;1289;61416;-79
2024/01/27 05:22:19;;;;;;;11.90;8.00;;;;;;;20.40;30.26;101071.12;103663;1289;62514;-80
2024/01/27 05:24:44;;;;;;;10.60;7.40;;;;;;;20.40;30.33;101072.91;103665;1289;62535;-79
2024/01/27 05:27:10;;;;;;;10.60;7.70;;;;;;;20.40;30.40;101070.93;103483;1291;61472;-80
2024/01/27 05:29:39;;;;;;;10.80;8.00;;;;;;;20.41;30.09;101068.94;103363;1290;74344;-79
2024/01/27 05:32:05;;;;;;;12.30;7.80;;;;;;;20.41;30.35;101066.77;103337;1289;61337;-79
2024/01/27 05:34:31;;;;;;;11.70;8.10;;;;;;;20.42;30.27;101069.60;103367;1288;61554;-79
2024/01/27 05:36:56;;;;;;;11.30;7.80;;;;;;;20.42;30.33;101073.55;103240;1289;62433;-80
2024/01/27 05:39:22;;;;;;;10.60;7.50;;;;;;;20.42;30.42;101074.38;103341;1289;61483;-79
2024/01/27 05:41:48;;;;;;;11.30;7.80;;;;;;;20.42;30.37;101080.63;103355;1292;61486;-79
2024/01/27 05:44:13;;;;;;;11.00;7.80;;;;;;;20.42;30.30;101084.04;103473;1286;61468;-80
2024/01/27 05:46:39;;;;;;;11.40;7.90;;;;;;;20.43;30.26;101082.77;103230;1288;61325;-80
2024/01/27 05:49:05;;;;;;;10.50;7.60;;;;;;;20.43;30.23;101084.36;103235;1286;63066;-79
2024/01/27 05:51:31;;;;;;;10.90;7.70;;;;;;;20.43;30.32;101080.94;103413;1291;61458;-80
2024/01/27 05:53:57;;;;;;;10.10;7.10;;;;;;;20.43;30.15;101078.27;103422;1291;61760;-79
2024/01/27 05:56:23;;;;;;;11.00;7.00;;;;;;;20.43;30.31;101074.67;103725;1282;61834;-78
2024/01/27 05:58:49;;;;;;;10.00;7.20;;;;;;;20.44;30.14;101074.48;103688;1287;61446;-80
2024/01/27 06:01:15;;;;;;;9.90;7.20;;;;;;;20.44;30.09;101081.61;103569;1286;61391;-79
2024/01/27 06:03:42;;;;;;;10.80;7.40;;;;;;;20.44;30.15;101091.45;103713;1283;74200;-80
2024/01/27 06:06:08;;;;;;;10.30;7.40;;;;;;;20.44;30.17;101089.48;103799;1288;61728;-79
2024/01/27 06:08:34;;;;;;;11.80;7.60;;;;;;;20.44;30.22;101085.19;103674;1283;62649;-79
2024/01/27 06:10:59;;;;;;;9.70;7.50;;;;;;;20.44;30.21;101082.48;103697;1283;61726;-79
2024/01/27 06:13:25;;;;;;;9.80;7.20;;;;;;;20.45;30.27;101086.02;103665;1286;61362;-80
2024/01/27 06:15:51;;;;;;;10.90;7.80;;;;;;;20.45;30.15;101086.21;103687;1283;62765;-80
2024/01/27 06:18:17;;;;;;;11.50;7.60;;;;;;;20.45;30.18;101079.04;103498;1281;61391;-80
2024/01/27 06:20:44;;;;;;;11.00;6.90;;;;;;;20.46;30.17;101076.69;103702;1283;61390;-81
2024/01/27 06:23:09;;;;;;;10.20;7.00;;;;;;;20.46;30.16;101075.23;103658;1287;72255;-80
2024/01/27 06:25:35;;;;;;;9.50;6.90;;;;;;;20.47;29.99;101080.73;103909;1283;61527;-79
2024/01/27 06:28:01;;;;;;;11.20;7.40;;;;;;;20.47;30.11;101078.42;103682;1283;61387;-79
2024/01/27 06:30:27;;;;;;;11.30;7.00;;;;;;;20.46;29.96;101068.80;103526;1283;61611;-79
2024/01/27 06:32:52;;;;;;;8.70;6.70;;;;;;;20.46;30.16;101063.60;103765;1283;61403;-79
2024/01/27 06:35:18;;;;;;;9.70;6.40;;;;;;;20.47;30.03;101064.11;103847;1283;61318;-79
2024/01/27 06:37:44;;;;;;;9.10;6.70;;;;;;;20.47;30.07;101060.70;103860;1285;74297;-79
2024/01/27 06:40:11;;;;;;;10.10;6.80;;;;;;;20.47;30.14;101058.01;103659;1283;61871;-79
2024/01/27 06:42:37;;;;;;;10.60;7.30;;;;;;;20.47;30.21;101053.55;103392;1283;61278;-81
2024/01/27 06:45:03;;;;;;;9.00;6.90;;;;;;;20.47;30.11;101054.79;103811;1283;61445;-78
2024/01/27 06:47:29;;;;;;;7.70;6.40;;;;;;;20.48;29.98;101064.39;103674;1288;61286;-79
2024/01/27 06:49:55;;;;;;;10.00;6.60;;;;;;;20.48;30.00;101072.45;103583;1286;61372;-80
2024/01/27 06:52:21;;;;;;;10.80;6.60;;;;;;;20.48;30.07;101076.70;103805;1283;62635;-80
2024/01/27 06:54:46;;;;;;;9.20;6.30;;;;;;;20.49;30.00;101079.00;103960;1285;61910;-79
2024/01/27 06:57:23;;;;;;;9.70;6.90;;;;;;;20.48;29.96;101074.36;103796;1283;61893;-80
2024/01/27 06:59:53;;;;;;;11.20;7.00;;;;;;;20.48;30.09;101072.05;103443;1291;73083;-80
2024/01/27 07:02:23;;;;;;;10.10;6.80;;;;;;;20.47;30.15;101067.11;103704;1286;61305;-78
2024/01/27 07:04:48;;;;;;;8.90;6.20;;;;;;;20.47;30.17;101068.38;103925;1282;61348;-79
2024/01/27 07:07:14;;;;;;;8.70;6.30;;;;;;;20.46;30.27;101070.44;103760;1283;61397;-80
2024/01/27 07:09:42;;;;;;;8.80;6.40;;;;;;;20.45;30.21;101069.98;103857;1283;61384;-79
2024/01/27 07:12:09;;;;;;;8.70;6.40;;;;;;;20.44;30.07;101072.17;104036;1283;61370;-79
2024/01/27 07:14:35;;;;;;;9.20;6.60;;;;;;;20.42;30.19;101069.23;103866;1283;62461;-79
2024/01/27 07:17:03;;;;;;;9.00;6.10;;;;;;;20.40;30.09;101069.72;103727;1283;61399;-79
2024/01/27 07:19:29;;;;;;;9.40;6.40;;;;;;;20.38;30.02;101070.52;103619;1283;75474;-79
2024/01/27 07:21:55;;;;;;;8.80;6.60;;;;;;;20.36;30.21;101068.70;103670;1286;61400;-79
2024/01/27 07:24:29;;;;;;;9.90;6.60;;;;;;;20.35;30.30;101069.89;103850;1283;61457;-79
2024/01/27 07:26:55;;;;;;;9.90;6.50;;;;;;;20.32;30.24;101070.23;103899;1283;61352;-79
2024/01/27 07:29:24;;;;;;;9.60;6.60;;;;;;;20.30;30.21;101068.20;103772;1288;61409;-81
2024/01/27 07:31:51;;;;;;;8.90;6.30;;;;;;;20.27;30.23;101067.13;103583;1282;61406;-80
2024/01/27 07:34:17;;;;;;;7.60;6.00;;;;;;;20.25;30.40;101072.63;103484;1286;62649;-80
2024/01/27 07:36:44;;;;;;;8.40;6.10;;;;;;;20.22;30.32;101077.99;103550;1288;61375;-80
2024/01/27 07:39:13;;;;;;;10.00;6.50;;;;;;;20.20;30.34;101082.77;102932;1291;692229;-82
2024/01/27 07:41:38;;;;;;;8.40;5.80;;;;;;;20.18;30.47;101095.23;103560;1283;61890;-80
2024/01/27 07:44:11;;;;;;;10.30;6.60;;;;;;;20.16;30.44;101102.33;103497;1288;61372;-79
2024/01/27 07:46:38;;;;;;;8.30;6.00;;;;;;;20.15;30.29;101105.28;103528;1288;73420;-81
2024/01/27 07:49:04;;;;;;;10.10;6.60;;;;;;;20.12;30.47;101100.98;103583;1282;61436;-79
2024/01/27 07:51:30;;;;;;;9.40;6.20;;;;;;;20.10;30.48;101095.73;103485;1288;61392;-80
2024/01/27 07:53:56;;;;;;;9.10;6.20;;;;;;;20.08;30.55;101091.38;103556;1283;62570;-80
2024/01/27 07:56:25;;;;;;;8.40;5.70;;;;;;;20.07;30.40;101087.71;103614;1288;61356;-80
2024/01/27 07:58:50;;;;;;;9.30;6.40;;;;;;;20.05;30.42;101090.84;103751;1288;74433;-81
2024/01/27 08:01:17;;;;;;;8.20;6.30;;;;;;;20.03;30.44;101091.48;103494;1282;61388;-80
2024/01/27 08:03:43;;;;;;;9.00;5.60;;;;;;;20.02;30.63;101094.27;103531;1283;61365;-80
2024/01/27 08:06:17;;;;;;;9.10;6.10;;;;;;;20.01;30.37;101095.41;103518;1288;61339;-80
2024/01/27 08:08:47;;;;;;;10.50;6.40;;;;;;;19.99;30.55;101097.82;103541;1288;74175;-80
2024/01/27 08:11:17;;;;;;;8.30;5.80;;;;;;;19.98;30.61;101098.23;103202;1292;61388;-80
2024/01/27 08:13:43;;;;;;;10.00;6.10;;;;;;;19.97;30.50;101097.98;103388;1289;61385;-79
2024/01/27 08:16:09;;;;;;;7.90;5.50;;;;;;;19.96;30.68;101105.17;103451;1289;62513;-80
2024/01/27 08:18:43;;;;;;;8.90;6.10;;;;;;;19.95;30.59;101108.83;103575;1288;61364;-80
2024/01/27 08:21:10;;;;;;;8.10;5.60;;;;;;;19.94;30.63;101109.04;103714;1288;61426;-81
2024/01/27 08:23:38;;;;;;;7.40;5.30;;;;;;;19.93;30.46;101111.42;103376;1289;61372;-80
2024/01/27 08:26:07;;;;;;;9.70;5.80;;;;;;;19.92;30.58;101113.23;103777;1289;73533;-79
2024/01/27 08:28:33;;;;;;;8.20;5.60;;;;;;;19.92;30.53;101112.55;103458;1286;61362;-80
2024/01/27 08:31:02;;;;;;;8.30;5.40;;;;;;;19.90;30.62;101113.36;103514;1283;61391;-80
2024/01/27 08:33:28;;;;;;;9.40;5.40;;;;;;;19.90;30.46;101114.83;103549;1288;61448;-80
2024/01/27 08:35:54;;;;;;;8.20;5.80;;;;;;;19.89;30.51;101120.78;103510;1282;71624;-80
2024/01/27 08:38:20;;;;;;;7.20;5.40;;;;;;;19.88;30.62;101119.21;103731;1288;61653;-79
2024/01/27 08:40:46;;;;;;;8.10;5.70;;;;;;;19.88;30.52;101122.47;103521;1288;62589;-80
2024/01/27 08:43:12;;;;;;;7.60;5.50;;;;;;;19.87;30.62;101126.61;103518;1283;61470;-80
2024/01/27 08:45:41;;;;;;;8.50;5.60;;;;;;;19.87;30.65;101128.58;103489;1288;61378;-80
2024/01/27 08:48:11;;;;;;;8.80;5.60;;;;;;;19.86;30.61;101129.16;103908;1282;74572;-80
2024/01/27 08:50:37;;;;;;;9.90;6.00;;;;;;;19.86;30.63;101127.41;103505;1291;61269;-80
2024/01/27 08:53:03;;;;;;;8.40;5.90;;;;;;;19.85;30.64;101132.27;103321;1283;62640;-80
2024/01/27 08:55:29;;;;;;;8.60;5.50;;;;;;;19.85;30.46;101139.61;103742;1287;61365;-80
2024/01/27 08:57:56;;;;;;;9.50;6.00;;;;;;;19.84;30.62;101140.70;103516;1283;61369;-79
2024/01/27 09:00:22;;;;;;;8.60;5.80;;;;;;;19.84;30.65;101146.96;103527;1288;61399;-80
2024/01/27 09:02:47;;;;;;;8.50;5.90;;;;;;;19.84;30.49;101156.81;103542;1288;61413;-79
2024/01/27 09:05:13;;;;;;;8.90;6.00;;;;;;;19.84;30.59;101162.36;103553;1283;62520;-79
2024/01/27 09:07:39;;;;;;;7.90;5.70;;;;;;;19.83;30.62;101163.29;103561;1288;61441;-79
2024/01/27 09:10:06;;;;;;;7.90;5.90;;;;;;;19.83;30.63;101162.05;103574;1288;62557;-80
2024/01/27 09:12:32;;;;;;;9.10;5.50;;;;;;;19.82;30.70;101157.61;103584;1285;61386;-80
2024/01/27 09:14:58;;;;;;;9.90;5.50;;;;;;;19.82;30.55;101157.44;103547;1286;62480;-80
2024/01/27 09:17:27;;;;;;;8.90;5.50;;;;;;;19.82;30.64;101164.26;103429;1283;72540;-80
2024/01/27 09:19:52;;;;;;;8.50;5.20;;;;;;;19.82;30.65;101166.39;103570;1288;62442;-80
2024/01/27 09:22:18;;;;;;;9.30;5.80;;;;;;;19.82;30.45;101159.09;103559;1287;61392;-80
2024/01/27 09:24:44;;;;;;;8.30;5.70;;;;;;;19.81;30.53;101159.64;103541;1288;62562;-80
2024/01/27 09:27:10;;;;;;;8.00;5.20;;;;;;;19.81;30.68;101163.77;103452;1291;61476;-80
2024/01/27 09:29:36;;;;;;;8.00;5.60;;;;;;;19.81;30.59;101160.90;103735;1282;61368;-80
2024/01/27 09:32:02;;;;;;;7.80;5.70;;;;;;;19.81;30.59;101159.14;103484;1283;75293;-80
2024/01/27 09:34:28;;;;;;;9.20;6.00;;;;;;;19.81;30.67;101149.84;103258;1294;61456;-80
2024/01/27 09:36:54;;;;;;;9.10;5.60;;;;;;;19.80;30.72;101146.84;103477;1288;62564;-79
2024/01/27 09:39:22;;;;;;;8.70;6.00;;;;;;;19.80;30.72;101145.75;103660;1290;73404;-79
2024/01/27 09:41:48;;;;;;;9.30;6.10;;;;;;;19.80;30.76;101139.89;103484;1288;61386;-79
2024/01/27 09:44:14;;;;;;;9.10;5.90;;;;;;;19.80;30.63;101135.96;103568;1288;61500;-80
2024/01/27 09:46:40;;;;;;;8.50;5.00;;;;;;;19.80;30.63;101137.20;103578;1288;62506;-80
2024/01/27 09:49:08;;;;;;;9.60;5.50;;;;;;;19.80;30.61;101135.08;103504;1288;61333;-80
2024/01/27 09:51:34;;;;;;;8.50;5.90;;;;;;;19.80;30.56;101137.76;103556;1288;61905;-80
2024/01/27 09:54:00;;;;;;;8.40;5.80;;;;;;;19.79;30.66;101135.64;103266;1289;62361;-79
2024/01/27 09:56:26;;;;;;;8.30;5.60;;;;;;;19.79;30.74;101134.23;103582;1289;62230;-80
2024/01/27 09:58:55;;;;;;;10.00;5.90;;;;;;;19.79;30.58;101131.58;103290;1292;61778;-80
2024/01/27 10:01:21;;;;;;;8.00;5.40;;;;;;;19.78;30.73;101123.16;103627;1289;62129;-80
2024/01/27 10:03:50;;;;;;;8.90;5.60;;;;;;;19.79;30.64;101127.63;103570;1288;61352;-80
2024/01/27 10:06:18;;;;;;;8.90;5.70;;;;;;;19.79;30.64;101127.28;103502;1290;61445;-80
2024/01/27 10:08:54;;;;;;;7.90;5.20;;;;;;;19.78;30.54;101126.59;103544;1283;62925;-80
2024/01/27 10:11:20;;;;;;;9.00;5.70;;;;;;;19.78;30.71;101130.17;103581;1298;75411;-80
2024/01/27 10:13:53;;;;;;;8.30;5.50;;;;;;;19.79;30.56;101131.20;103656;1290;61349;-79
2024/01/27 10:16:18;;;;;;;10.40;6.00;;;;;;;19.78;30.62;101129.11;103491;1292;61304;-81
2024/01/27 10:18:44;;;;;;;8.10;5.80;;;;;;;19.77;30.78;101131.08;103527;1288;61426;-80
2024/01/27 10:21:18;;;;;;;9.10;5.90;;;;;;;19.78;30.68;101136.43;103490;1288;62506;-80
2024/01/27 10:23:43;;;;;;;8.00;5.60;;;;;;;19.78;30.75;101142.52;103495;1289;62999;-80
2024/01/27 10:26:12;;;;;;;8.70;5.80;;;;;;;19.78;30.74;101149.84;103498;1288;61742;-79
2024/01/27 10:28:38;;;;;;;9.60;5.90;;;;;;;19.77;30.63;101149.50;103532;1288;72819;-80
2024/01/27 10:31:11;;;;;;;9.20;5.90;;;;;;;19.77;30.71;101144.34;103498;1289;61909;-79
2024/01/27 10:33:37;;;;;;;8.00;5.50;;;;;;;19.77;30.64;101140.94;103796;1289;61281;-79
2024/01/27 10:36:02;;;;;;;8.40;5.60;;;;;;;19.77;30.67;101138.11;103410;1290;61305;-80
2024/01/27 10:38:36;;;;;;;9.90;6.20;;;;;;;19.76;30.68;101140.27;103627;1288;61221;-80
2024/01/27 10:41:01;;;;;;;9.00;5.80;;;;;;;19.76;30.67;101145.45;103531;1284;75188;-80
2024/01/27 10:43:27;;;;;;;8.40;6.00;;;;;;;19.77;30.77;101142.56;103498;1292;62084;-80
2024/01/27 10:45:53;;;;;;;9.90;5.70;;;;;;;19.76;30.75;101142.04;103536;1283;61901;-79
2024/01/27 10:48:19;;;;;;;7.50;5.40;;;;;;;19.76;30.78;101142.05;103582;1288;61384;-79
2024/01/27 10:50:45;;;;;;;8.40;5.60;;;;;;;19.76;30.55;101151.17;103809;1288;62525;-80
2024/01/27 10:53:24;;;;;;;9.50;5.90;;;;;;;19.76;30.72;101155.44;103520;1288;61466;-80
2024/01/27 10:55:52;;;;;;;11.10;5.50;;;;;;;19.76;30.62;101149.40;103558;1289;61441;-80
2024/01/27 10:58:18;;;;;;;7.90;5.60;;;;;;;19.75;30.56;101150.14;103608;1288;72507;-80
2024/01/27 11:00:48;;;;;;;9.10;6.20;;;;;;;19.75;30.67;101148.53;103637;1288;74476;-80
2024/01/27 11:03:15;;;;;;;9.60;6.40;;;;;;;19.75;30.68;101144.46;103548;1288;62475;-80
2024/01/27 11:05:40;;;;;;;10.00;6.00;;;;;;;19.75;30.59;101147.63;103593;1298;61235;-79